Time;durP1;ratioP1;P1;durP2;ratioP2;P2;SDS_P1;SDS_P2;PMS_P1;PMS_P2;Temp;Humidity;BMP_temperature;BMP_pressure;BME280_temperature;BME280_humidity;BME280_pressure;Samples;Min_cycle;Max_cycle;Signal;HPM_P1;HPM_P2
2023/06/02 00:05:40;;;;;;;;;;;;;;;15.32;100.00;97531.28;18564815;32;20000;-51
2023/06/02 00:15:43;;;;;;;;;;;;;;;15.16;100.00;97517.22;18550151;32;20008;-48
2023/06/02 00:25:46;;;;;;;;;;;;;;;15.03;100.00;97524.25;18563563;32;19956;-48
2023/06/02 00:35:49;;;;;;;;;;;;;;;14.93;100.00;97528.00;18562901;32;19988;-48
2023/06/02 00:45:52;;;;;;;;;;;;;;;14.88;100.00;97533.53;18562434;32;19957;-49
2023/06/02 00:55:55;;;;;;;;;;;;;;;14.82;100.00;97538.25;18547958;32;19960;-48
2023/06/02 01:06:00;;;;;;;;;;;;;;;14.74;100.00;97547.13;18561512;32;19956;-51
2023/06/02 01:16:03;;;;;;;;;;;;;;;14.65;100.00;97543.47;18561373;32;20027;-48
2023/06/02 01:26:08;;;;;;;;;;;;;;;14.48;100.00;97547.53;18560920;32;19953;-48
2023/06/02 01:36:12;;;;;;;;;;;;;;;14.30;100.00;97540.25;18563265;32;19971;-51
2023/06/02 01:46:16;;;;;;;;;;;;;;;14.10;100.00;97547.63;18569132;32;20003;-50
2023/06/02 01:56:18;;;;;;;;;;;;;;;13.91;100.00;97550.38;18554524;32;19953;-49
2023/06/02 02:06:30;;;;;;;;;;;;;;;13.71;100.00;97554.19;18553794;32;19960;-48
2023/06/02 02:16:33;;;;;;;;;;;;;;;13.55;100.00;97559.81;18567731;32;19965;-48
2023/06/02 02:26:35;;;;;;;;;;;;;;;13.39;100.00;97561.13;18552994;32;20008;-52
2023/06/02 02:36:39;;;;;;;;;;;;;;;13.25;100.00;97550.12;18569088;32;19949;-48
2023/06/02 02:46:42;;;;;;;;;;;;;;;13.15;100.00;97558.38;18569651;32;19985;-51
2023/06/02 02:56:44;;;;;;;;;;;;;;;12.99;100.00;97560.47;18554975;32;19952;-48
2023/06/02 03:06:49;;;;;;;;;;;;;;;12.90;100.00;97562.22;18568633;32;19986;-48
2023/06/02 03:16:52;;;;;;;;;;;;;;;12.79;100.00;97559.59;18568005;32;19971;-49
2023/06/02 03:26:57;;;;;;;;;;;;;;;12.69;100.00;97565.12;18567294;32;19989;-49
2023/06/02 03:37:01;;;;;;;;;;;;;;;12.60;100.00;97574.97;18566738;32;20357;-51
2023/06/02 03:47:03;;;;;;;;;;;;;;;12.51;100.00;97575.59;18566428;32;20000;-51
2023/06/02 03:57:07;;;;;;;;;;;;;;;12.43;100.00;97588.94;18564804;32;20307;-48
2023/06/02 04:07:10;;;;;;;;;;;;;;;12.38;100.00;97587.09;18564947;32;19949;-47
2023/06/02 04:17:14;;;;;;;;;;;;;;;12.41;100.00;97586.50;18564177;32;19979;-49
2023/06/02 04:27:17;;;;;;;;;;;;;;;12.48;100.00;97600.53;18563473;31;19940;-47
2023/06/02 04:37:20;;;;;;;;;;;;;;;12.65;100.00;97599.34;18548667;32;20016;-48
2023/06/02 04:47:22;;;;;;;;;;;;;;;12.85;100.00;97611.91;18562398;32;19990;-50
2023/06/02 04:57:25;;;;;;;;;;;;;;;13.09;100.00;97611.94;18562316;32;19975;-49
2023/06/02 05:07:30;;;;;;;;;;;;;;;13.33;100.00;97611.94;18561539;32;19968;-50
2023/06/02 05:17:32;;;;;;;;;;;;;;;13.63;100.00;97620.03;18561092;31;19996;-47
2023/06/02 05:27:37;;;;;;;;;;;;;;;13.93;100.00;97618.03;18561403;32;19960;-48
2023/06/02 05:37:39;;;;;;;;;;;;;;;14.23;100.00;97619.50;18560443;32;19983;-48
2023/06/02 05:47:42;;;;;;;;;;;;;;;14.51;100.00;97634.03;18560141;32;19992;-53
2023/06/02 05:57:45;;;;;;;;;;;;;;;14.80;100.00;97638.47;18560238;32;19965;-48
2023/06/02 06:07:47;;;;;;;;;;;;;;;14.98;100.00;97638.69;18559605;32;20004;-47
2023/06/02 06:17:51;;;;;;;;;;;;;;;15.52;100.00;97641.78;18559335;32;20044;-50
2023/06/02 06:27:55;;;;;;;;;;;;;;;15.98;100.00;97638.16;18570689;32;19967;-48
2023/06/02 06:38:10;;;;;;;;;;;;;;;16.37;100.00;97646.81;18570106;32;20019;-52
2023/06/02 06:48:13;;;;;;;;;;;;;;;16.75;100.00;97649.19;18570091;32;20305;-49
2023/06/02 06:58:16;;;;;;;;;;;;;;;17.07;100.00;97658.25;18569372;32;19988;-52
2023/06/02 07:08:18;;;;;;;;;;;;;;;17.28;90.30;97651.13;18568978;31;19956;-51
2023/06/02 07:18:21;;;;;;;;;;;;;;;17.50;98.24;97659.56;18568307;32;19975;-52
2023/06/02 07:28:24;;;;;;;;;;;;;;;17.77;92.72;97672.22;18567540;32;20351;-52
2023/06/02 07:38:40;;;;;;;;;;;;;;;18.10;90.75;97669.09;18565881;32;20356;-52
2023/06/02 07:48:43;;;;;;;;;;;;;;;18.31;88.77;97673.94;18566492;32;19957;-51
2023/06/02 07:58:46;;;;;;;;;;;;;;;18.61;86.97;97683.97;18551474;32;20052;-51
2023/06/02 08:08:52;;;;;;;;;;;;;;;18.84;85.06;97681.03;18564615;31;19953;-50
2023/06/02 08:18:54;;;;;;;;;;;;;;;19.06;78.95;97668.31;18564172;32;19967;-51
2023/06/02 08:28:59;;;;;;;;;;;;;;;19.20;82.14;97662.63;18563828;32;19964;-52
2023/06/02 08:39:25;;;;;;;;;;;;;;;19.49;79.23;97659.16;18563022;32;19948;-53
2023/06/02 08:49:30;;;;;;;;;;;;;;;19.83;80.44;97654.66;18547886;32;20363;-51
2023/06/02 08:59:33;;;;;;;;;;;;;;;20.17;80.02;97655.56;18562092;32;19953;-50
2023/06/02 09:09:50;;;;;;;;;;;;;;;20.56;72.41;97655.44;18561517;32;19993;-51
2023/06/02 09:20:06;;;;;;;;;;;;;;;20.63;72.32;97650.22;18561321;32;19960;-53
2023/06/02 09:30:13;;;;;;;;;;;;;;;21.10;77.67;97646.37;18546615;31;20305;-53
2023/06/02 09:40:27;;;;;;;;;;;;;;;21.30;64.09;97644.72;18560840;32;19997;-54
2023/06/02 09:50:32;;;;;;;;;;;;;;;21.48;65.53;97640.59;18545908;32;19984;-54
2023/06/02 10:00:37;;;;;;;;;;;;;;;21.77;67.21;97640.75;18555802;32;19993;-52
2023/06/02 10:11:01;;;;;;;;;;;;;;;22.28;66.84;97643.91;18572348;32;20380;-54
2023/06/02 10:21:18;;;;;;;;;;;;;;;22.31;56.74;97645.94;18572218;32;20275;-51
2023/06/02 10:31:31;;;;;;;;;;;;;;;22.52;66.80;97646.97;18570563;31;19948;-53
2023/06/02 10:41:53;;;;;;;;;;;;;;;22.89;62.42;97644.84;18556224;32;19989;-49
2023/06/02 10:52:06;;;;;;;;;;;;;;;23.28;58.58;97641.53;18569652;31;19956;-51
2023/06/02 11:02:09;;;;;;;;;;;;;;;23.61;57.23;97634.88;18569617;32;19972;-50
2023/06/02 11:12:12;;;;;;;;;;;;;;;23.87;57.83;97609.44;18553836;32;20272;-51
2023/06/02 11:22:18;;;;;;;;;;;;;;;24.41;56.70;97612.62;18553553;32;20340;-53
2023/06/02 11:32:22;;;;;;;;;;;;;;;24.76;56.85;97615.31;18567173;31;20369;-53
2023/06/02 11:42:34;;;;;;;;;;;;;;;25.04;53.89;97603.19;18566737;32;19953;-55
2023/06/02 11:52:37;;;;;;;;;;;;;;;25.30;47.90;97605.22;18565958;32;19949;-55
2023/06/02 12:02:40;;;;;;;;;;;;;;;25.58;49.85;97586.72;18565555;32;20288;-52
2023/06/02 12:12:46;;;;;;;;;;;;;;;26.11;47.72;97585.94;18564758;32;19968;-54
2023/06/02 12:22:55;;;;;;;;;;;;;;;26.50;58.39;97574.53;18549272;32;20020;-53
2023/06/02 12:33:05;;;;;;;;;;;;;;;26.92;49.53;97567.88;18563247;31;19948;-51
2023/06/02 12:43:08;;;;;;;;;;;;;;;27.25;46.35;97571.72;18562804;32;19996;-54
2023/06/02 12:53:12;;;;;;;;;;;;;;;27.80;49.94;97559.06;18562407;32;19963;-52
2023/06/02 13:03:15;;;;;;;;;;;;;;;28.20;46.36;97547.00;18562183;32;19949;-54
2023/06/02 13:13:19;;;;;;;;;;;;;;;28.27;40.10;97537.88;18547664;32;20325;-53
2023/06/02 13:23:22;;;;;;;;;;;;;;;28.49;42.65;97544.34;18561699;32;19989;-53
2023/06/02 13:33:26;;;;;;;;;;;;;;;28.98;39.23;97530.91;18569516;31;19963;-53
2023/06/02 13:43:31;;;;;;;;;;;;;;;29.53;40.40;97517.81;18547774;32;19960;-55
2023/06/02 13:53:34;;;;;;;;;;;;;;;29.79;39.18;97510.19;18559399;32;20316;-55
2023/06/02 14:03:38;;;;;;;;;;;;;;;30.37;37.90;97511.59;18572732;32;19971;-55
2023/06/02 14:13:42;;;;;;;;;;;;;;;30.47;38.16;97507.16;18571947;32;20015;-55
2023/06/02 14:23:46;;;;;;;;;;;;;;;30.54;37.69;97498.75;18571441;32;19961;-55
2023/06/02 14:33:49;;;;;;;;;;;;;;;30.73;35.50;97496.66;18570598;32;19997;-52
2023/06/02 14:43:53;;;;;;;;;;;;;;;31.08;34.28;97486.44;18569769;32;19985;-54
2023/06/02 14:53:56;;;;;;;;;;;;;;;31.01;35.03;97475.31;18569638;32;19956;-54
2023/06/02 15:03:59;;;;;;;;;;;;;;;29.72;35.79;97455.28;18569099;32;19967;-54
2023/06/02 15:14:03;;;;;;;;;;;;;;;28.31;36.40;97435.81;18568348;32;19968;-53
2023/06/02 15:24:07;;;;;;;;;;;;;;;27.55;41.16;97426.41;18541109;32;20003;-53
2023/06/02 15:34:10;;;;;;;;;;;;;;;26.99;39.78;97418.09;18552779;31;19996;-53
2023/06/02 15:44:15;;;;;;;;;;;;;;;26.08;42.40;97415.69;18552281;32;19989;-52
2023/06/02 15:54:19;;;;;;;;;;;;;;;25.85;42.22;97404.72;18565276;32;20290;-51
2023/06/02 16:04:23;;;;;;;;;;;;;;;25.35;45.40;97397.41;18565399;32;20023;-55
2023/06/02 16:14:26;;;;;;;;;;;;;;;25.27;44.96;97394.84;18564353;31;20035;-56
2023/06/02 16:24:29;;;;;;;;;;;;;;;25.09;43.40;97395.44;18564373;32;20011;-53
2023/06/02 16:34:33;;;;;;;;;;;;;;;25.23;45.29;97394.81;18549426;32;20008;-53
2023/06/02 16:44:36;;;;;;;;;;;;;;;25.46;42.34;97382.88;18562885;32;19975;-53
2023/06/02 16:54:39;;;;;;;;;;;;;;;25.40;41.03;97392.72;18548523;32;19971;-54
2023/06/02 17:04:44;;;;;;;;;;;;;;;24.82;42.53;97389.88;18561922;32;20337;-54
2023/06/02 17:14:48;;;;;;;;;;;;;;;24.35;41.20;97377.22;18561447;32;20320;-55
2023/06/02 17:24:51;;;;;;;;;;;;;;;24.09;40.55;97380.72;18534032;32;20289;-55
2023/06/02 17:34:54;;;;;;;;;;;;;;;23.86;41.09;97398.03;18560552;32;20387;-53
2023/06/02 17:44:59;;;;;;;;;;;;;;;23.43;41.03;97397.94;18546236;32;19979;-54
2023/06/02 17:55:03;;;;;;;;;;;;;;;23.25;41.54;97385.75;18560161;32;19969;-55
2023/06/02 18:05:10;;;;;;;;;;;;;;;24.44;41.54;97396.34;18560126;31;20328;-54
2023/06/02 18:15:17;;;;;;;;;;;;;;;27.98;33.53;97434.91;18546604;32;19965;-55
2023/06/02 18:25:20;;;;;;;;;;;;;;;24.65;37.89;97416.09;18571684;32;19971;-53
2023/06/02 18:35:23;;;;;;;;;;;;;;;22.81;42.79;97425.28;18556562;32;19957;-54
2023/06/02 18:45:27;;;;;;;;;;;;;;;22.18;45.12;97430.38;18570538;32;19952;-51
2023/06/02 18:55:31;;;;;;;;;;;;;;;21.76;46.39;97441.00;18555825;32;20008;-53
2023/06/02 19:05:34;;;;;;;;;;;;;;;21.36;48.01;97452.78;18569039;32;19991;-53
2023/06/02 19:15:41;;;;;;;;;;;;;;;21.10;47.72;97468.50;18555126;32;19956;-50
2023/06/02 19:25:44;;;;;;;;;;;;;;;20.79;48.58;97458.09;18567734;32;19948;-52
2023/06/02 19:35:46;;;;;;;;;;;;;;;20.40;50.30;97471.25;18566700;32;20004;-54
2023/06/02 19:45:50;;;;;;;;;;;;;;;20.08;50.83;97488.19;18566522;32;20350;-50
2023/06/02 19:55:53;;;;;;;;;;;;;;;19.71;53.37;97509.16;18566113;32;19992;-52
2023/06/02 20:05:58;;;;;;;;;;;;;;;19.24;55.86;97513.63;18565137;32;20328;-54
2023/06/02 20:16:00;;;;;;;;;;;;;;;18.90;58.30;97526.38;18550836;32;19960;-51
2023/06/02 20:26:03;;;;;;;;;;;;;;;18.73;58.12;97545.56;18564108;32;19956;-53
2023/06/02 20:36:06;;;;;;;;;;;;;;;18.43;62.73;97551.75;18548962;32;19948;-53
2023/06/02 20:46:08;;;;;;;;;;;;;;;18.13;66.95;97559.03;18563152;32;19965;-53
2023/06/02 20:56:11;;;;;;;;;;;;;;;17.78;77.42;97572.66;18562465;32;19957;-53
2023/06/02 21:06:14;;;;;;;;;;;;;;;17.37;87.45;97574.63;18547976;32;19956;-54
2023/06/02 21:16:18;;;;;;;;;;;;;;;17.03;92.51;97576.13;18561643;32;19971;-52
2023/06/02 21:26:21;;;;;;;;;;;;;;;16.76;100.00;97577.91;18561284;32;19964;-51
2023/06/02 21:36:24;;;;;;;;;;;;;;;16.35;100.00;97583.56;18560624;32;19968;-52
2023/06/02 21:46:27;;;;;;;;;;;;;;;16.00;100.00;97586.81;18560350;31;19961;-51
2023/06/02 21:56:34;;;;;;;;;;;;;;;15.72;100.00;97594.25;18556199;32;19957;-51
2023/06/02 22:06:37;;;;;;;;;;;;;;;15.42;100.00;97593.75;18572831;32;20399;-51
2023/06/02 22:16:39;;;;;;;;;;;;;;;15.16;100.00;97594.25;18558151;32;19968;-51
2023/06/02 22:26:42;;;;;;;;;;;;;;;14.93;100.00;97592.53;18571427;32;19960;-52
2023/06/02 22:36:45;;;;;;;;;;;;;;;14.69;100.00;97585.31;18571177;32;19976;-53
2023/06/02 22:46:49;;;;;;;;;;;;;;;14.46;100.00;97582.41;18556293;32;19956;-50
2023/06/02 22:56:51;;;;;;;;;;;;;;;14.20;100.00;97584.72;18555681;32;20355;-52
2023/06/02 23:06:54;;;;;;;;;;;;;;;14.01;100.00;97587.47;18569237;32;20373;-52
2023/06/02 23:16:56;;;;;;;;;;;;;;;13.79;100.00;97588.84;18568532;32;19989;-50
2023/06/02 23:26:59;;;;;;;;;;;;;;;13.60;100.00;97588.81;18567902;32;19948;-53
2023/06/02 23:37:02;;;;;;;;;;;;;;;13.44;100.00;97584.69;18566977;32;19964;-52
2023/06/02 23:47:04;;;;;;;;;;;;;;;13.28;100.00;97579.41;18552532;32;19957;-52
2023/06/02 23:57:07;;;;;;;;;;;;;;;13.13;100.00;97574.16;18566118;32;19964;-53
